createdAt,value
2019-02-25T00:03:53.875Z,82.07
2019-02-25T00:08:00.421Z,91.40
2019-02-25T00:12:06.953Z,84.30
2019-02-25T00:16:17.552Z,84.80
2019-02-25T00:20:23.847Z,84.07
2019-02-25T00:24:33.239Z,87.97
2019-02-25T00:28:39.734Z,83.63
2019-02-25T00:32:47.037Z,86.93
2019-02-25T00:37:13.833Z,91.67
2019-02-25T00:41:20.698Z,91.60
2019-02-25T00:45:27.202Z,85.50
2019-02-25T00:49:36.972Z,94.70
2019-02-25T00:53:43.654Z,84.83
2019-02-25T00:57:52.189Z,98.90
2019-02-25T01:01:58.110Z,93.30
2019-02-25T01:06:08.733Z,90.57
2019-02-25T01:10:39.458Z,88.23
2019-02-25T01:14:46.119Z,106.80
2019-02-25T01:18:55.851Z,96.10
2019-02-25T01:23:03.373Z,72.43
2019-02-25T01:27:09.989Z,87.37
2019-02-25T01:31:18.010Z,90.33
2019-02-25T01:35:24.310Z,88.57
2019-02-25T01:39:34.786Z,85.83
2019-02-25T01:43:42.975Z,81.23
2019-02-25T01:47:49.901Z,81.80
2019-02-25T01:51:58.572Z,85.80
2019-02-25T01:56:06.820Z,73.97
2019-02-25T02:00:14.301Z,99.33
2019-02-25T02:04:22.056Z,83.20
2019-02-25T02:08:33.280Z,75.40
2019-02-25T02:12:39.757Z,81.90
2019-02-25T02:16:48.396Z,85.43
2019-02-25T02:20:56.251Z,72.10
2019-02-25T02:25:03.183Z,75.70
2019-02-25T02:33:17.787Z,79.37
2019-02-25T02:37:24.276Z,76.33
2019-02-25T02:41:33.875Z,73.70
2019-02-25T02:45:56.393Z,69.30
2019-02-25T02:50:03.495Z,65.47
2019-02-25T02:54:11.953Z,74.03
2019-02-25T02:58:18.170Z,70.47
2019-02-25T03:02:26.004Z,66.93
2019-02-25T03:06:34.089Z,75.40
2019-02-25T03:10:40.870Z,77.00
2019-02-25T03:14:50.455Z,74.70
2019-02-25T03:18:57.434Z,78.20
2019-02-25T03:23:03.720Z,71.83
2019-02-25T03:27:33.313Z,71.20
2019-02-25T03:31:40.017Z,80.17
2019-02-25T03:35:50.438Z,69.40
2019-02-25T03:39:59.854Z,94.13
2019-02-25T03:44:10.240Z,95.83
2019-02-25T03:48:17.415Z,83.00
2019-02-25T03:52:24.795Z,82.03
2019-02-25T03:56:34.203Z,77.50
2019-02-25T04:00:40.773Z,70.77
2019-02-25T04:04:49.366Z,71.23
2019-02-25T04:08:57.351Z,81.23
2019-02-25T04:17:13.859Z,67.40
2019-02-25T04:21:20.243Z,72.87
2019-02-25T04:25:30.172Z,66.77
2019-02-25T04:29:36.527Z,63.37
2019-02-25T04:33:48.744Z,79.23
2019-02-25T04:37:56.310Z,69.33
2019-02-25T04:42:07.021Z,68.90
2019-02-25T04:46:13.321Z,62.20
2019-02-25T04:50:20.209Z,69.67
2019-02-25T04:54:30.478Z,72.73
2019-02-25T04:58:37.637Z,65.20
2019-02-25T05:02:45.184Z,60.17
2019-02-25T05:06:58.993Z,78.77
2019-02-25T05:11:05.359Z,69.07
2019-02-25T05:15:17.364Z,69.60
2019-02-25T05:19:23.671Z,69.53
2019-02-25T05:23:31.518Z,68.77
2019-02-25T05:27:43.215Z,67.07
2019-02-25T05:31:52.004Z,70.50
2019-02-25T05:35:58.291Z,65.33
2019-02-25T05:40:08.646Z,65.30
2019-02-25T05:44:15.054Z,73.83
2019-02-25T05:48:22.880Z,65.00
2019-02-25T05:53:28.128Z,59.00
2019-02-25T05:57:37.667Z,74.60
2019-02-25T06:05:49.492Z,76.40
2019-02-25T06:09:58.881Z,76.23
2019-02-25T06:14:09.053Z,73.27
2019-02-25T06:18:20.946Z,84.10
2019-02-25T06:26:38.690Z,63.63
2019-02-25T06:35:13.573Z,70.83
2019-02-25T06:39:21.615Z,68.73
2019-02-25T06:43:30.900Z,49.80
2019-02-25T06:47:37.240Z,57.57
2019-02-25T06:51:44.592Z,68.03
2019-02-25T06:55:51.110Z,63.57
2019-02-25T06:59:57.969Z,62.77
2019-02-25T07:04:23.194Z,84.13
2019-02-25T07:08:52.636Z,31.17
2019-02-25T07:13:08.250Z,64.97
2019-02-25T07:17:29.725Z,82.40
2019-02-25T07:21:48.221Z,64.70
2019-02-25T07:26:08.442Z,79.80
2019-02-25T07:30:37.238Z,64.63
2019-02-25T07:35:10.647Z,66.70
2019-02-25T07:39:29.523Z,49.23
2019-02-25T07:43:49.541Z,53.63
2019-02-25T07:48:14.782Z,69.47
2019-02-25T07:52:28.628Z,69.67
2019-02-25T07:56:44.614Z,72.47
2019-02-25T08:00:59.380Z,65.83
2019-02-25T08:05:09.497Z,67.60
2019-02-25T08:09:30.593Z,67.47
2019-02-25T08:13:48.258Z,54.40
2019-02-25T08:18:09.839Z,71.07
2019-02-25T08:22:35.972Z,66.40
2019-02-25T08:27:02.681Z,74.30
2019-02-25T08:31:29.464Z,75.00
2019-02-25T08:36:07.716Z,61.93
2019-02-25T08:40:29.330Z,62.90
2019-02-25T08:44:49.042Z,73.37
2019-02-25T08:49:34.777Z,72.17
2019-02-25T08:53:41.563Z,75.83
2019-02-25T08:57:47.924Z,72.63
2019-02-25T09:01:53.709Z,67.77
2019-02-25T09:05:59.973Z,60.07
2019-02-25T09:10:06.997Z,67.77
2019-02-25T09:14:35.652Z,74.67
2019-02-25T09:18:45.823Z,65.83
2019-02-25T09:22:55.804Z,62.57
2019-02-25T09:27:02.329Z,61.73
2019-02-25T09:31:08.984Z,55.90
2019-02-25T09:35:37.129Z,75.30
2019-02-25T09:39:43.503Z,61.30
2019-02-25T09:43:55.399Z,72.70
2019-02-25T09:48:02.089Z,69.27
2019-02-25T09:52:09.169Z,74.63
2019-02-25T09:56:34.929Z,79.77
2019-02-25T10:00:41.711Z,80.57
2019-02-25T10:04:48.142Z,68.97
2019-02-25T10:08:58.387Z,86.77
2019-02-25T10:13:05.217Z,58.03
2019-02-25T10:17:13.271Z,69.13
2019-02-25T10:21:19.894Z,66.87
2019-02-25T10:25:28.634Z,62.03
2019-02-25T10:29:38.700Z,77.70
2019-02-25T10:33:45.330Z,88.87
2019-02-25T10:37:53.363Z,80.63
2019-02-25T10:42:01.725Z,83.77
2019-02-25T10:46:09.525Z,72.67
2019-02-25T10:50:19.705Z,88.00
2019-02-25T10:54:26.130Z,85.93
2019-02-25T10:58:54.366Z,91.50
2019-02-25T11:03:01.279Z,72.67
2019-02-25T11:07:09.594Z,88.03
2019-02-25T11:11:24.442Z,81.87
2019-02-25T11:15:37.526Z,98.40
2019-02-25T11:19:44.886Z,85.40
2019-02-25T11:28:04.398Z,84.73
2019-02-25T11:36:20.037Z,91.90
2019-02-25T11:40:28.395Z,96.30
2019-02-25T11:45:15.724Z,98.20
2019-02-25T11:49:23.479Z,88.77
2019-02-25T11:53:29.802Z,90.30
2019-02-25T11:57:39.120Z,91.27
2019-02-25T12:01:47.907Z,101.67
2019-02-25T12:06:13.799Z,97.67
2019-02-25T12:10:20.447Z,102.77
2019-02-25T12:14:27.385Z,87.67
2019-02-25T12:18:34.033Z,81.97
2019-02-25T12:22:45.766Z,78.87
2019-02-25T12:26:54.104Z,83.40
2019-02-25T12:31:03.187Z,95.37
2019-02-25T12:35:10.105Z,73.37
2019-02-25T12:39:16.487Z,65.23
2019-02-25T12:43:22.870Z,97.00
2019-02-25T12:47:29.586Z,99.03
2019-02-25T12:51:38.865Z,95.00
2019-02-25T12:55:46.509Z,94.97
2019-02-25T12:59:54.106Z,91.23
2019-02-25T13:04:00.444Z,88.17
2019-02-25T13:08:06.906Z,89.27
2019-02-25T13:12:15.260Z,87.57
2019-02-25T13:16:22.273Z,90.63
2019-02-25T13:20:34.173Z,96.90
2019-02-25T13:24:40.751Z,97.13
2019-02-25T13:28:48.940Z,83.43
2019-02-25T13:33:19.048Z,94.37
2019-02-25T13:37:25.820Z,95.27
2019-02-25T13:41:36.969Z,92.33
2019-02-25T13:45:44.732Z,88.57
2019-02-25T13:49:55.480Z,94.00
2019-02-25T13:54:02.019Z,92.83
2019-02-25T13:58:08.354Z,83.87
2019-02-25T14:02:17.254Z,73.73
2019-02-25T14:06:23.587Z,93.63
2019-02-25T14:14:40.191Z,103.27
2019-02-25T14:18:47.752Z,87.77
2019-02-25T14:22:54.163Z,104.87
2019-02-25T14:27:00.778Z,121.17
2019-02-25T14:31:12.553Z,104.23
2019-02-25T14:35:28.209Z,103.33
2019-02-25T14:39:36.018Z,104.87
2019-02-25T14:43:48.731Z,124.03
2019-02-25T14:47:59.654Z,105.63
2019-02-25T14:52:04.593Z,118.73
2019-02-25T14:56:14.246Z,124.30
2019-02-25T15:00:24.285Z,118.20
2019-02-25T15:04:35.804Z,119.43
2019-02-25T15:08:43.398Z,113.27
2019-02-25T15:12:53.785Z,135.23
2019-02-25T15:16:59.137Z,139.27
2019-02-25T15:21:08.531Z,124.10
2019-02-25T15:25:17.853Z,105.03
2019-02-25T15:29:24.301Z,114.47
2019-02-25T15:33:33.623Z,144.27
2019-02-25T15:37:40.596Z,145.07
2019-02-25T15:41:49.286Z,156.00
2019-02-25T15:45:58.648Z,152.00
2019-02-25T15:50:05.932Z,164.80
2019-02-25T15:54:16.525Z,106.20
2019-02-25T15:58:23.020Z,123.90
2019-02-25T16:02:29.489Z,163.47
2019-02-25T16:06:57.613Z,137.90
2019-02-25T16:11:06.199Z,155.87
2019-02-25T16:15:15.775Z,160.33
2019-02-25T16:19:23.836Z,147.63
2019-02-25T16:23:32.045Z,149.60
2019-02-25T16:27:38.368Z,159.90
2019-02-25T16:31:45.904Z,143.73
2019-02-25T16:35:53.584Z,156.53
2019-02-25T16:40:03.851Z,169.93
2019-02-25T16:44:16.658Z,157.60
2019-02-25T16:48:28.084Z,140.63
2019-02-25T16:52:36.080Z,144.57
2019-02-25T16:56:42.343Z,137.27
2019-02-25T17:00:48.748Z,147.97
2019-02-25T17:05:16.713Z,130.93
2019-02-25T17:09:24.413Z,116.37
2019-02-25T17:17:40.192Z,124.33
2019-02-25T17:21:50.488Z,116.50
2019-02-25T17:25:58.751Z,151.23
2019-02-25T17:30:07.513Z,135.23
2019-02-25T17:34:16.488Z,126.97
2019-02-25T17:38:24.610Z,142.87
2019-02-25T17:42:34.450Z,171.20
2019-02-25T17:46:41.783Z,179.77
2019-02-25T17:50:49.257Z,188.17
2019-02-25T17:55:20.065Z,215.23
2019-02-25T17:59:27.314Z,223.27
2019-02-25T18:03:37.227Z,288.43
2019-02-25T18:07:46.504Z,205.47
2019-02-25T18:11:55.368Z,230.50
2019-02-25T18:16:01.716Z,240.20
2019-02-25T18:20:09.152Z,222.97
2019-02-25T18:24:36.276Z,209.07
2019-02-25T18:28:43.582Z,171.90
2019-02-25T18:37:00.605Z,184.03
2019-02-25T18:41:09.243Z,257.17
2019-02-25T18:45:41.025Z,194.07
2019-02-25T18:49:47.158Z,194.40
2019-02-25T18:53:57.048Z,220.27
2019-02-25T18:58:05.067Z,219.73
2019-02-25T19:02:17.246Z,228.67
2019-02-25T19:06:26.426Z,234.77
2019-02-25T19:11:15.104Z,220.73
2019-02-25T19:15:21.268Z,221.83
2019-02-25T19:19:28.139Z,223.77
2019-02-25T19:23:36.939Z,225.30
2019-02-25T19:27:44.989Z,206.87
2019-02-25T19:31:53.806Z,198.13
2019-02-25T19:36:02.827Z,182.77
2019-02-25T19:40:13.960Z,207.10
2019-02-25T19:44:21.087Z,187.80
2019-02-25T19:48:31.293Z,181.57
2019-02-25T19:52:44.262Z,219.10
2019-02-25T19:56:56.199Z,217.67
2019-02-25T20:01:06.633Z,214.93
2019-02-25T20:05:21.191Z,219.17
2019-02-25T20:09:29.098Z,189.87
2019-02-25T20:13:35.501Z,244.50
2019-02-25T20:18:24.160Z,222.07
2019-02-25T20:22:34.918Z,243.43
2019-02-25T20:26:44.118Z,229.77
2019-02-25T20:30:51.623Z,223.77
2019-02-25T20:34:59.365Z,214.80
2019-02-25T20:39:06.980Z,251.97
2019-02-25T20:43:21.340Z,240.83
2019-02-25T20:47:28.599Z,194.93
2019-02-25T20:51:38.865Z,303.03
2019-02-25T20:55:52.385Z,278.10
2019-02-25T21:00:21.001Z,304.50
2019-02-25T21:04:27.801Z,254.87
2019-02-25T21:08:56.636Z,257.67
2019-02-25T21:13:03.202Z,308.10
2019-02-25T21:17:12.946Z,217.60
2019-02-25T21:21:18.495Z,279.87
2019-02-25T21:25:26.754Z,293.83
2019-02-25T21:29:36.540Z,254.17
2019-02-25T21:33:47.419Z,233.93
2019-02-25T21:37:54.662Z,272.93
2019-02-25T21:42:02.802Z,226.30
2019-02-25T21:46:09.768Z,198.70
2019-02-25T21:50:18.232Z,219.13
2019-02-25T21:54:28.227Z,249.47
2019-02-25T21:58:36.569Z,243.40
2019-02-25T22:02:44.021Z,304.33
2019-02-25T22:11:11.982Z,276.37
2019-02-25T22:15:10.839Z,262.87
2019-02-25T22:19:20.858Z,294.37
2019-02-25T22:23:28.421Z,256.60
2019-02-25T22:27:37.384Z,318.57
2019-02-25T22:31:44.712Z,314.43
2019-02-25T22:40:01.831Z,275.90
2019-02-25T22:44:08.967Z,286.53
2019-02-25T22:48:18.606Z,338.67
2019-02-25T22:52:27.205Z,268.10
2019-02-25T22:56:39.392Z,342.50
2019-02-25T23:00:49.073Z,343.70
2019-02-25T23:04:57.382Z,286.43
2019-02-25T23:09:05.066Z,279.10
2019-02-25T23:13:15.179Z,318.97
2019-02-25T23:17:21.478Z,324.63
2019-02-25T23:21:29.311Z,262.17
2019-02-25T23:25:58.409Z,295.73
2019-02-25T23:30:08.384Z,241.60
2019-02-25T23:34:15.335Z,267.90
2019-02-25T23:38:22.578Z,236.73
2019-02-25T23:42:32.746Z,224.17
2019-02-25T23:46:41.708Z,221.90
2019-02-25T23:50:50.177Z,255.10
2019-02-25T23:54:58.553Z,210.97
2019-02-25T23:59:10.767Z,255.40
